createdAt,value
2022-11-14T00:00:51.484Z,8.60
2022-11-14T00:03:37.099Z,8.50
2022-11-14T00:06:23.066Z,8.50
2022-11-14T00:09:08.803Z,8.40
2022-11-14T00:11:56.111Z,8.30
2022-11-14T00:14:42.581Z,8.20
2022-11-14T00:17:28.408Z,8.20
2022-11-14T00:20:14.426Z,8.10
2022-11-14T00:23:00.110Z,8.10
2022-11-14T00:25:46.309Z,8.00
2022-11-14T00:28:32.690Z,8.00
2022-11-14T00:31:18.827Z,8.10
2022-11-14T00:34:05.143Z,8.30
2022-11-14T00:36:51.488Z,8.40
2022-11-14T00:39:37.589Z,8.50
2022-11-14T00:42:23.554Z,8.50
2022-11-14T00:45:10.045Z,8.50
2022-11-14T00:47:55.645Z,8.50
2022-11-14T00:50:42.154Z,8.50
2022-11-14T00:53:28.184Z,8.50
2022-11-14T00:56:14.175Z,8.50
2022-11-14T00:59:00.177Z,8.50
2022-11-14T01:01:45.776Z,8.50
2022-11-14T01:04:31.825Z,8.50
2022-11-14T01:07:17.576Z,8.50
2022-11-14T01:10:04.499Z,8.50
2022-11-14T01:12:50.062Z,8.50
2022-11-14T01:15:47.348Z,8.50
2022-11-14T01:18:33.412Z,8.50
2022-11-14T01:21:19.391Z,8.50
2022-11-14T01:24:05.827Z,8.50
2022-11-14T01:26:51.806Z,8.50
2022-11-14T01:29:37.559Z,8.40
2022-11-14T01:32:23.510Z,8.40
2022-11-14T01:35:09.448Z,8.30
2022-11-14T01:37:55.316Z,8.30
2022-11-14T01:40:45.569Z,8.20
2022-11-14T01:43:38.843Z,8.20
2022-11-14T01:46:35.325Z,8.20
2022-11-14T01:49:26.331Z,8.20
2022-11-14T01:52:22.561Z,8.20
2022-11-14T01:55:09.958Z,8.20
2022-11-14T01:57:57.122Z,8.20
2022-11-14T02:00:44.431Z,8.10
2022-11-14T02:03:31.456Z,8.10
2022-11-14T02:06:21.282Z,8.10
2022-11-14T02:09:07.886Z,8.10
2022-11-14T02:11:57.037Z,8.10
2022-11-14T02:14:45.415Z,8.00
2022-11-14T02:17:32.394Z,8.00
2022-11-14T02:20:23.711Z,7.90
2022-11-14T02:23:11.431Z,8.00
2022-11-14T02:25:58.195Z,7.90
2022-11-14T02:28:43.991Z,7.90
2022-11-14T02:31:30.091Z,7.90
2022-11-14T02:34:20.144Z,7.80
2022-11-14T02:37:07.302Z,7.90
2022-11-14T02:39:52.989Z,7.80
2022-11-14T02:42:38.785Z,7.80
2022-11-14T02:45:24.915Z,7.90
2022-11-14T02:48:11.003Z,7.90
2022-11-14T02:50:57.130Z,7.90
2022-11-14T02:53:43.117Z,7.90
2022-11-14T02:56:29.042Z,8.00
2022-11-14T02:59:14.990Z,8.00
2022-11-14T03:02:01.375Z,8.00
2022-11-14T03:04:47.145Z,8.00
2022-11-14T03:07:33.274Z,8.00
2022-11-14T03:10:19.082Z,8.00
2022-11-14T03:13:04.929Z,8.00
2022-11-14T03:15:50.942Z,8.10
2022-11-14T03:18:36.996Z,8.10
2022-11-14T03:21:23.446Z,8.10
2022-11-14T03:24:09.288Z,8.20
2022-11-14T03:26:55.291Z,8.20
2022-11-14T03:29:41.587Z,8.30
2022-11-14T03:32:27.157Z,8.30
2022-11-14T03:35:13.415Z,8.40
2022-11-14T03:37:59.463Z,8.40
2022-11-14T03:40:45.784Z,8.50
2022-11-14T03:43:33.834Z,8.60
2022-11-14T03:46:19.903Z,8.60
2022-11-14T03:49:05.852Z,8.70
2022-11-14T03:51:51.798Z,8.70
2022-11-14T03:54:38.272Z,8.80
2022-11-14T03:57:24.118Z,8.80
2022-11-14T04:00:10.655Z,8.90
2022-11-14T04:02:57.338Z,9.00
2022-11-14T04:05:46.411Z,9.00
2022-11-14T04:08:32.937Z,9.10
2022-11-14T04:11:19.747Z,9.10
2022-11-14T04:14:05.533Z,9.20
2022-11-14T04:16:51.249Z,9.20
2022-11-14T04:19:37.427Z,9.20
2022-11-14T04:22:23.243Z,9.20
2022-11-14T04:25:09.914Z,9.30
2022-11-14T04:27:55.456Z,9.30
2022-11-14T04:30:42.283Z,9.30
2022-11-14T04:33:28.170Z,9.30
2022-11-14T04:36:14.217Z,9.30
2022-11-14T04:39:00.836Z,9.30
2022-11-14T04:41:46.814Z,9.30
2022-11-14T04:44:32.721Z,9.30
2022-11-14T04:47:18.771Z,9.40
2022-11-14T04:50:05.235Z,9.40
2022-11-14T04:52:54.178Z,9.40
2022-11-14T04:55:40.151Z,9.40
2022-11-14T04:58:26.832Z,9.50
2022-11-14T05:01:14.480Z,9.40
2022-11-14T05:04:00.448Z,9.50
2022-11-14T05:06:46.563Z,9.50
2022-11-14T05:09:32.127Z,9.40
2022-11-14T05:12:18.347Z,9.40
2022-11-14T05:15:04.543Z,9.40
2022-11-14T05:17:50.211Z,9.40
2022-11-14T05:20:36.133Z,9.30
2022-11-14T05:23:24.031Z,9.30
2022-11-14T05:26:12.763Z,9.30
2022-11-14T05:28:58.542Z,9.20
2022-11-14T05:31:44.294Z,9.20
2022-11-14T05:34:30.226Z,9.30
2022-11-14T05:37:16.109Z,9.20
2022-11-14T05:40:02.587Z,9.30
2022-11-14T05:42:48.521Z,9.40
2022-11-14T05:45:34.834Z,9.40
2022-11-14T05:48:20.570Z,9.40
2022-11-14T05:51:07.643Z,9.50
2022-11-14T05:53:53.817Z,9.50
2022-11-14T05:56:39.478Z,9.50
2022-11-14T05:59:25.330Z,9.50
2022-11-14T06:02:11.077Z,9.50
2022-11-14T06:04:57.260Z,9.60
2022-11-14T06:07:43.354Z,9.50
2022-11-14T06:10:29.918Z,9.60
2022-11-14T06:13:15.668Z,9.60
2022-11-14T06:16:08.064Z,9.50
2022-11-14T06:18:54.658Z,9.50
2022-11-14T06:21:40.569Z,9.50
2022-11-14T06:24:26.417Z,9.60
2022-11-14T06:27:12.380Z,9.60
2022-11-14T06:29:58.441Z,9.60
2022-11-14T06:32:44.446Z,9.50
2022-11-14T06:35:30.646Z,9.50
2022-11-14T06:38:16.614Z,9.40
2022-11-14T06:41:08.353Z,9.50
2022-11-14T06:43:54.824Z,9.50
2022-11-14T06:46:41.116Z,9.60
2022-11-14T06:49:27.774Z,9.70
2022-11-14T06:52:13.647Z,9.80
2022-11-14T06:54:59.544Z,9.80
2022-11-14T06:57:45.843Z,9.80
2022-11-14T07:00:31.827Z,9.80
2022-11-14T07:03:17.831Z,9.80
2022-11-14T07:06:05.265Z,9.80
2022-11-14T07:08:52.823Z,9.90
2022-11-14T07:11:38.569Z,9.90
2022-11-14T07:14:24.244Z,9.90
2022-11-14T07:17:09.972Z,10.00
2022-11-14T07:19:55.874Z,10.00
2022-11-14T07:22:41.699Z,10.10
2022-11-14T07:25:27.542Z,10.10
2022-11-14T07:28:13.483Z,10.20
2022-11-14T07:30:59.590Z,10.10
2022-11-14T07:33:46.184Z,10.10
2022-11-14T07:36:31.798Z,10.10
2022-11-14T07:39:17.746Z,10.20
2022-11-14T07:42:03.963Z,10.30
2022-11-14T07:44:49.986Z,10.40
2022-11-14T07:47:36.213Z,10.50
2022-11-14T07:50:23.763Z,10.50
2022-11-14T07:53:10.349Z,10.60
2022-11-14T07:55:57.356Z,10.60
2022-11-14T07:58:43.393Z,10.70
2022-11-14T08:01:29.175Z,10.60
2022-11-14T08:04:15.050Z,10.70
2022-11-14T08:07:00.922Z,10.90
2022-11-14T08:09:46.750Z,11.00
2022-11-14T08:12:32.822Z,11.00
2022-11-14T08:15:18.790Z,11.10
2022-11-14T08:18:05.291Z,11.10
2022-11-14T08:20:51.613Z,11.10
2022-11-14T08:23:37.945Z,11.20
2022-11-14T08:26:23.986Z,11.10
2022-11-14T08:29:09.984Z,11.10
2022-11-14T08:31:59.976Z,11.20
2022-11-14T08:34:46.319Z,11.30
2022-11-14T08:37:32.223Z,11.40
2022-11-14T08:40:18.403Z,11.50
2022-11-14T08:43:04.251Z,11.50
2022-11-14T08:45:50.045Z,11.60
2022-11-14T08:48:36.009Z,11.60
2022-11-14T08:51:22.223Z,11.60
2022-11-14T08:54:08.321Z,11.80
2022-11-14T08:56:54.203Z,11.90
2022-11-14T08:59:40.227Z,11.90
2022-11-14T09:02:26.185Z,11.70
2022-11-14T09:05:12.010Z,11.70
2022-11-14T09:07:58.972Z,11.70
2022-11-14T09:10:45.452Z,11.70
2022-11-14T09:13:33.485Z,11.80
2022-11-14T09:16:19.022Z,11.80
2022-11-14T09:19:04.884Z,11.90
2022-11-14T09:21:51.039Z,11.90
2022-11-14T09:24:37.061Z,12.00
2022-11-14T09:27:22.789Z,12.10
2022-11-14T09:30:11.201Z,12.10
2022-11-14T09:33:02.153Z,12.20
2022-11-14T09:35:57.248Z,12.20
2022-11-14T09:38:44.388Z,12.30
2022-11-14T09:41:36.414Z,12.40
2022-11-14T09:44:40.591Z,12.40
2022-11-14T09:47:48.066Z,12.50
2022-11-14T09:50:40.250Z,12.50
2022-11-14T09:53:39.930Z,12.60
2022-11-14T09:56:26.826Z,12.70
2022-11-14T09:59:14.118Z,12.90
2022-11-14T10:02:37.549Z,12.90
2022-11-14T10:05:31.592Z,13.00
2022-11-14T10:08:41.974Z,13.00
2022-11-14T10:11:36.614Z,13.00
2022-11-14T10:14:51.493Z,12.90
2022-11-14T10:17:46.416Z,13.00
2022-11-14T10:20:52.963Z,13.00
2022-11-14T10:24:12.924Z,13.00
2022-11-14T10:27:03.353Z,13.10
2022-11-14T10:30:01.512Z,13.10
2022-11-14T10:32:52.886Z,13.20
2022-11-14T10:35:47.606Z,13.00
2022-11-14T10:38:52.351Z,13.00
2022-11-14T10:41:56.762Z,13.00
2022-11-14T10:45:01.092Z,13.00
2022-11-14T10:47:51.974Z,13.00
2022-11-14T10:50:51.690Z,12.90
2022-11-14T10:54:04.206Z,12.80
2022-11-14T10:56:52.205Z,12.60
2022-11-14T10:59:38.453Z,12.70
2022-11-14T11:02:24.035Z,12.70
2022-11-14T11:05:18.431Z,12.70
2022-11-14T11:08:43.342Z,12.50
2022-11-14T11:11:30.904Z,12.40
2022-11-14T11:14:18.944Z,12.40
2022-11-14T11:17:29.554Z,12.60
2022-11-14T11:20:31.690Z,12.60
2022-11-14T11:23:27.295Z,12.70
2022-11-14T11:26:17.661Z,12.70
2022-11-14T11:29:09.613Z,12.90
2022-11-14T11:31:59.691Z,12.90
2022-11-14T11:34:45.728Z,12.90
2022-11-14T11:37:36.136Z,12.90
2022-11-14T11:40:27.250Z,13.00
2022-11-14T11:46:48.838Z,13.10
2022-11-14T11:49:47.400Z,13.30
2022-11-14T11:53:11.313Z,13.40
2022-11-14T11:56:04.626Z,13.50
2022-11-14T11:59:26.727Z,13.50
2022-11-14T12:02:27.094Z,13.60
2022-11-14T12:05:36.038Z,13.70
2022-11-14T12:08:38.668Z,13.70
2022-11-14T12:11:27.522Z,13.70
2022-11-14T12:14:28.386Z,13.70
2022-11-14T12:18:00.663Z,13.70
2022-11-14T12:21:04.725Z,13.90
2022-11-14T12:24:25.301Z,14.00
2022-11-14T12:27:37.798Z,14.00
2022-11-14T12:30:25.960Z,14.10
2022-11-14T12:33:23.579Z,14.10
2022-11-14T12:36:12.649Z,14.20
2022-11-14T12:38:59.378Z,14.20
2022-11-14T12:41:45.407Z,14.10
2022-11-14T12:44:32.834Z,14.10
2022-11-14T12:47:27.449Z,14.00
2022-11-14T12:50:38.726Z,14.00
2022-11-14T12:53:36.573Z,13.90
2022-11-14T12:56:31.380Z,13.80
2022-11-14T12:59:48.167Z,13.70
2022-11-14T13:02:55.950Z,13.60
2022-11-14T13:05:46.869Z,13.70
2022-11-14T13:08:54.922Z,13.70
2022-11-14T13:12:02.519Z,13.70
2022-11-14T13:15:14.934Z,13.70
2022-11-14T13:18:32.012Z,13.60
2022-11-14T13:21:46.512Z,13.60
2022-11-14T13:24:58.475Z,13.50
2022-11-14T13:31:05.664Z,13.40
2022-11-14T13:33:59.076Z,13.30
2022-11-14T13:36:45.005Z,13.30
2022-11-14T13:39:56.398Z,13.30
2022-11-14T13:43:00.163Z,13.30
2022-11-14T13:46:01.715Z,13.30
2022-11-14T13:49:17.885Z,13.30
2022-11-14T13:52:04.361Z,13.20
2022-11-14T13:54:50.720Z,13.30
2022-11-14T13:57:52.426Z,13.20
2022-11-14T14:01:01.948Z,13.30
2022-11-14T14:04:31.099Z,13.30
2022-11-14T14:07:25.725Z,13.20
2022-11-14T14:10:26.705Z,13.20
2022-11-14T14:13:40.516Z,13.30
2022-11-14T14:16:51.242Z,13.20
2022-11-14T14:19:37.312Z,13.00
2022-11-14T14:22:33.683Z,12.80
2022-11-14T14:25:45.609Z,12.70
2022-11-14T14:28:56.232Z,12.60
2022-11-14T14:31:42.751Z,12.50
2022-11-14T14:34:31.211Z,12.30
2022-11-14T14:37:23.883Z,12.20
2022-11-14T14:40:24.649Z,12.10
2022-11-14T14:43:28.611Z,12.10
2022-11-14T14:46:14.531Z,12.00
2022-11-14T14:49:03.754Z,11.90
2022-11-14T14:51:52.131Z,11.80
2022-11-14T14:54:41.496Z,11.80
2022-11-14T14:57:28.303Z,11.80
2022-11-14T15:00:28.770Z,11.80
2022-11-14T15:03:14.946Z,11.80
2022-11-14T15:06:04.635Z,11.70
2022-11-14T15:08:50.734Z,11.70
2022-11-14T15:11:40.948Z,11.70
2022-11-14T15:14:31.179Z,11.80
2022-11-14T15:17:17.834Z,11.70
2022-11-14T15:20:04.271Z,11.60
2022-11-14T15:23:10.427Z,11.60
2022-11-14T15:26:15.657Z,11.50
2022-11-14T15:29:22.020Z,11.50
2022-11-14T15:32:19.517Z,11.40
2022-11-14T15:35:26.425Z,11.30
2022-11-14T15:38:42.654Z,11.30
2022-11-14T15:41:24.357Z,11.30
2022-11-14T15:44:34.006Z,11.20
2022-11-14T15:47:36.237Z,11.20
2022-11-14T15:50:25.483Z,11.20
2022-11-14T15:53:25.554Z,11.10
2022-11-14T15:56:13.138Z,11.00
2022-11-14T15:58:59.454Z,10.90
2022-11-14T16:01:50.275Z,10.90
2022-11-14T16:04:43.070Z,10.80
2022-11-14T16:07:33.328Z,10.70
2022-11-14T16:10:24.807Z,10.60
2022-11-14T16:13:11.308Z,10.60
2022-11-14T16:15:57.271Z,10.50
2022-11-14T16:18:42.986Z,10.50
2022-11-14T16:21:29.224Z,10.40
2022-11-14T16:24:23.578Z,10.40
2022-11-14T16:27:12.525Z,10.40
2022-11-14T16:30:00.189Z,10.40
2022-11-14T16:32:47.862Z,10.30
2022-11-14T16:35:34.829Z,10.30
2022-11-14T16:38:21.092Z,10.20
2022-11-14T16:41:12.223Z,10.20
2022-11-14T16:43:58.237Z,10.10
2022-11-14T16:46:47.829Z,10.10
2022-11-14T16:49:35.066Z,10.10
2022-11-14T16:52:21.073Z,10.00
2022-11-14T16:55:10.136Z,10.00
2022-11-14T16:57:56.246Z,10.00
2022-11-14T17:00:48.566Z,9.90
2022-11-14T17:03:34.614Z,9.90
2022-11-14T17:06:20.630Z,9.90
2022-11-14T17:09:06.869Z,9.80
2022-11-14T17:11:52.514Z,9.80
2022-11-14T17:14:40.802Z,9.80
2022-11-14T17:17:26.664Z,9.80
2022-11-14T17:20:12.537Z,9.80
2022-11-14T17:22:58.738Z,9.70
2022-11-14T17:25:48.648Z,9.70
2022-11-14T17:28:35.298Z,9.70
2022-11-14T17:31:21.734Z,9.70
2022-11-14T17:34:10.572Z,9.60
2022-11-14T17:36:56.423Z,9.60
2022-11-14T17:39:42.134Z,9.60
2022-11-14T17:42:28.387Z,9.60
2022-11-14T17:45:15.359Z,9.60
2022-11-14T17:48:02.944Z,9.60
2022-11-14T17:50:48.992Z,9.60
2022-11-14T17:53:34.900Z,9.60
2022-11-14T17:56:24.101Z,9.60
2022-11-14T17:59:09.767Z,9.60
2022-11-14T18:02:00.219Z,9.60
2022-11-14T18:04:47.121Z,9.50
2022-11-14T18:07:33.128Z,9.50
2022-11-14T18:10:19.070Z,9.50
2022-11-14T18:13:05.554Z,9.40
2022-11-14T18:15:51.647Z,9.40
2022-11-14T18:18:37.960Z,9.30
2022-11-14T18:21:25.358Z,9.20
2022-11-14T18:24:13.091Z,9.10
2022-11-14T18:26:59.220Z,9.10
2022-11-14T18:29:45.249Z,9.00
2022-11-14T18:32:31.223Z,9.00
2022-11-14T18:35:17.357Z,8.90
2022-11-14T18:38:03.005Z,8.90
2022-11-14T18:40:52.924Z,8.90
2022-11-14T18:43:42.963Z,8.90
2022-11-14T18:46:34.389Z,8.80
2022-11-14T18:49:22.847Z,8.90
2022-11-14T18:52:12.861Z,8.80
2022-11-14T18:55:04.847Z,8.80
2022-11-14T18:57:51.064Z,8.80
2022-11-14T19:00:37.004Z,8.70
2022-11-14T19:03:25.451Z,8.70
2022-11-14T19:06:12.994Z,8.70
2022-11-14T19:09:00.795Z,8.60
2022-11-14T19:12:05.271Z,8.60
2022-11-14T19:14:51.724Z,8.60
2022-11-14T19:17:37.391Z,8.70
2022-11-14T19:20:23.454Z,8.70
2022-11-14T19:23:09.236Z,8.80
2022-11-14T19:26:02.187Z,8.90
2022-11-14T19:28:49.106Z,9.00
2022-11-14T19:31:36.502Z,9.10
2022-11-14T19:34:22.134Z,9.20
2022-11-14T19:37:07.983Z,9.20
2022-11-14T19:39:55.507Z,9.30
2022-11-14T19:42:41.192Z,9.20
2022-11-14T19:45:27.150Z,9.20
2022-11-14T19:48:13.980Z,9.30
2022-11-14T19:51:09.658Z,9.40
2022-11-14T19:53:57.287Z,9.40
2022-11-14T19:56:42.840Z,9.50
2022-11-14T19:59:29.286Z,9.50
2022-11-14T20:02:15.170Z,9.60
2022-11-14T20:05:00.871Z,9.60
2022-11-14T20:07:46.949Z,9.60
2022-11-14T20:10:47.376Z,9.60
2022-11-14T20:13:34.999Z,9.60
2022-11-14T20:16:23.383Z,9.60
2022-11-14T20:19:08.950Z,9.60
2022-11-14T20:21:55.535Z,9.50
2022-11-14T20:24:41.640Z,9.60
2022-11-14T20:27:27.522Z,9.60
2022-11-14T20:30:13.577Z,9.60
2022-11-14T20:32:59.462Z,9.60
2022-11-14T20:35:45.703Z,9.60
2022-11-14T20:38:32.324Z,9.70
2022-11-14T20:41:18.943Z,9.70
2022-11-14T20:44:04.776Z,9.80
2022-11-14T20:46:51.050Z,9.80
2022-11-14T20:49:37.407Z,9.90
2022-11-14T20:52:23.745Z,9.90
2022-11-14T20:55:11.891Z,9.90
2022-11-14T20:57:57.722Z,10.00
2022-11-14T21:00:44.024Z,10.00
2022-11-14T21:03:30.457Z,10.00
2022-11-14T21:06:17.002Z,10.00
2022-11-14T21:09:03.031Z,10.10
2022-11-14T21:11:48.997Z,10.10
2022-11-14T21:14:34.891Z,10.10
2022-11-14T21:17:20.743Z,10.20
2022-11-14T21:20:07.267Z,10.10
2022-11-14T21:22:53.350Z,10.10
2022-11-14T21:25:39.164Z,10.10
2022-11-14T21:28:25.142Z,10.10
2022-11-14T21:31:17.324Z,10.10
2022-11-14T21:34:05.770Z,10.10
2022-11-14T21:36:51.616Z,10.10
2022-11-14T21:39:37.350Z,10.10
2022-11-14T21:42:23.322Z,10.10
2022-11-14T21:45:09.932Z,10.10
2022-11-14T21:47:55.879Z,10.20
2022-11-14T21:50:42.043Z,10.20
2022-11-14T21:53:28.799Z,10.20
2022-11-14T21:56:26.620Z,10.30
2022-11-14T21:59:16.820Z,10.30
2022-11-14T22:02:21.121Z,10.40
2022-11-14T22:05:07.703Z,10.40
2022-11-14T22:07:53.502Z,10.40
2022-11-14T22:10:39.409Z,10.40
2022-11-14T22:13:25.676Z,10.40
2022-11-14T22:16:11.756Z,10.50
2022-11-14T22:19:03.541Z,10.50
2022-11-14T22:21:51.146Z,10.50
2022-11-14T22:24:36.734Z,10.50
2022-11-14T22:27:22.616Z,10.50
2022-11-14T22:30:09.311Z,10.50
2022-11-14T22:32:54.998Z,10.50
2022-11-14T22:35:41.349Z,10.50
2022-11-14T22:38:30.082Z,10.50
2022-11-14T22:41:32.178Z,10.50
2022-11-14T22:44:18.873Z,10.50
2022-11-14T22:47:04.684Z,10.50
2022-11-14T22:49:50.757Z,10.50
2022-11-14T22:52:36.634Z,10.50
2022-11-14T22:55:22.406Z,10.60
2022-11-14T22:58:08.244Z,10.60
2022-11-14T23:00:54.255Z,10.60
2022-11-14T23:03:40.506Z,10.60
2022-11-14T23:06:27.806Z,10.60
2022-11-14T23:09:13.332Z,10.60
2022-11-14T23:11:59.172Z,10.60
2022-11-14T23:14:45.092Z,10.60
2022-11-14T23:17:31.946Z,10.60
2022-11-14T23:20:18.441Z,10.60
2022-11-14T23:23:04.988Z,10.50
2022-11-14T23:25:50.809Z,10.50
2022-11-14T23:28:36.978Z,10.50
2022-11-14T23:31:23.851Z,10.40
2022-11-14T23:34:09.773Z,10.40
2022-11-14T23:36:56.519Z,10.40
2022-11-14T23:39:42.139Z,10.40
2022-11-14T23:42:27.973Z,10.40
2022-11-14T23:45:14.261Z,10.40
2022-11-14T23:48:00.076Z,10.40
2022-11-14T23:50:50.510Z,10.40
2022-11-14T23:53:36.686Z,10.40
2022-11-14T23:56:22.650Z,10.40
2022-11-14T23:59:08.586Z,10.40
